sensor_id;sensor_type;location;lat;lon;timestamp;temperature;humidity
17421;DHT22;8828;48.800;9.540;2023-01-15T00:00:02;11.60;99.90
17421;DHT22;8828;48.800;9.540;2023-01-15T00:02:31;11.60;99.90
17421;DHT22;8828;48.800;9.540;2023-01-15T00:05:02;11.60;99.90
17421;DHT22;8828;48.800;9.540;2023-01-15T00:07:30;11.60;99.90
17421;DHT22;8828;48.800;9.540;2023-01-15T00:09:58;11.70;99.90
17421;DHT22;8828;48.800;9.540;2023-01-15T00:12:26;11.70;99.90
17421;DHT22;8828;48.800;9.540;2023-01-15T00:14:55;11.70;99.90
17421;DHT22;8828;48.800;9.540;2023-01-15T00:17:24;11.70;99.90
17421;DHT22;8828;48.800;9.540;2023-01-15T00:19:52;11.70;99.90
17421;DHT22;8828;48.800;9.540;2023-01-15T00:22:20;11.70;99.90
17421;DHT22;8828;48.800;9.540;2023-01-15T00:24:48;11.70;99.90
17421;DHT22;8828;48.800;9.540;2023-01-15T00:27:34;11.70;99.90
17421;DHT22;8828;48.800;9.540;2023-01-15T00:30:08;11.70;99.90
17421;DHT22;8828;48.800;9.540;2023-01-15T00:32:36;11.70;99.90
17421;DHT22;8828;48.800;9.540;2023-01-15T00:35:05;11.70;99.90
17421;DHT22;8828;48.800;9.540;2023-01-15T00:37:34;11.80;99.90
17421;DHT22;8828;48.800;9.540;2023-01-15T00:40:02;11.80;99.90
17421;DHT22;8828;48.800;9.540;2023-01-15T00:42:30;11.80;99.90
17421;DHT22;8828;48.800;9.540;2023-01-15T00:44:58;11.80;99.90
17421;DHT22;8828;48.800;9.540;2023-01-15T00:47:33;11.80;99.90
17421;DHT22;8828;48.800;9.540;2023-01-15T00:50:01;11.80;99.90
17421;DHT22;8828;48.800;9.540;2023-01-15T00:52:28;11.80;99.90
17421;DHT22;8828;48.800;9.540;2023-01-15T00:54:56;11.80;99.90
17421;DHT22;8828;48.800;9.540;2023-01-15T00:57:24;11.80;99.90
17421;DHT22;8828;48.800;9.540;2023-01-15T00:59:52;11.80;99.90
17421;DHT22;8828;48.800;9.540;2023-01-15T01:02:20;11.80;99.90
17421;DHT22;8828;48.800;9.540;2023-01-15T01:04:50;11.80;99.90
17421;DHT22;8828;48.800;9.540;2023-01-15T01:07:17;11.80;99.90
17421;DHT22;8828;48.800;9.540;2023-01-15T01:09:45;11.80;99.90
17421;DHT22;8828;48.800;9.540;2023-01-15T01:12:13;11.80;99.90
17421;DHT22;8828;48.800;9.540;2023-01-15T01:14:41;11.80;99.90
17421;DHT22;8828;48.800;9.540;2023-01-15T01:17:10;11.90;99.90
17421;DHT22;8828;48.800;9.540;2023-01-15T01:19:38;11.90;99.90
17421;DHT22;8828;48.800;9.540;2023-01-15T01:22:07;11.90;99.90
17421;DHT22;8828;48.800;9.540;2023-01-15T01:24:35;11.90;99.90
17421;DHT22;8828;48.800;9.540;2023-01-15T01:27:03;11.90;99.90
17421;DHT22;8828;48.800;9.540;2023-01-15T01:29:31;11.90;99.90
17421;DHT22;8828;48.800;9.540;2023-01-15T01:31:59;12.00;99.90
17421;DHT22;8828;48.800;9.540;2023-01-15T01:34:27;12.00;99.90
17421;DHT22;8828;48.800;9.540;2023-01-15T01:36:55;12.00;99.90
17421;DHT22;8828;48.800;9.540;2023-01-15T01:39:24;12.00;99.90
17421;DHT22;8828;48.800;9.540;2023-01-15T01:41:52;12.00;99.90
17421;DHT22;8828;48.800;9.540;2023-01-15T01:44:58;12.00;99.90
17421;DHT22;8828;48.800;9.540;2023-01-15T01:47:28;12.10;99.90
17421;DHT22;8828;48.800;9.540;2023-01-15T01:50:00;12.10;99.90
17421;DHT22;8828;48.800;9.540;2023-01-15T01:52:32;12.10;99.90
17421;DHT22;8828;48.800;9.540;2023-01-15T01:55:05;12.10;99.90
17421;DHT22;8828;48.800;9.540;2023-01-15T01:57:34;12.10;99.90
17421;DHT22;8828;48.800;9.540;2023-01-15T02:00:03;12.10;99.90
17421;DHT22;8828;48.800;9.540;2023-01-15T02:02:32;12.10;99.90
17421;DHT22;8828;48.800;9.540;2023-01-15T02:05:02;12.10;99.90
17421;DHT22;8828;48.800;9.540;2023-01-15T02:07:31;12.10;99.90
17421;DHT22;8828;48.800;9.540;2023-01-15T02:10:00;12.10;99.90
17421;DHT22;8828;48.800;9.540;2023-01-15T02:12:34;12.10;99.90
17421;DHT22;8828;48.800;9.540;2023-01-15T02:15:07;12.10;99.90
17421;DHT22;8828;48.800;9.540;2023-01-15T02:17:42;12.20;99.90
17421;DHT22;8828;48.800;9.540;2023-01-15T02:20:21;12.20;99.90
17421;DHT22;8828;48.800;9.540;2023-01-15T02:23:04;12.20;99.90
17421;DHT22;8828;48.800;9.540;2023-01-15T02:25:51;12.20;99.90
17421;DHT22;8828;48.800;9.540;2023-01-15T02:28:24;12.20;99.90
17421;DHT22;8828;48.800;9.540;2023-01-15T02:30:58;12.20;99.90
17421;DHT22;8828;48.800;9.540;2023-01-15T02:33:31;12.20;99.90
17421;DHT22;8828;48.800;9.540;2023-01-15T02:36:00;12.20;99.90
17421;DHT22;8828;48.800;9.540;2023-01-15T02:38:35;12.20;99.90
17421;DHT22;8828;48.800;9.540;2023-01-15T02:41:06;12.20;99.90
17421;DHT22;8828;48.800;9.540;2023-01-15T02:43:45;12.20;99.90
17421;DHT22;8828;48.800;9.540;2023-01-15T02:46:14;12.20;99.90
17421;DHT22;8828;48.800;9.540;2023-01-15T02:48:45;12.20;99.90
17421;DHT22;8828;48.800;9.540;2023-01-15T02:51:16;12.20;99.90
17421;DHT22;8828;48.800;9.540;2023-01-15T02:53:48;12.20;99.90
17421;DHT22;8828;48.800;9.540;2023-01-15T02:56:18;12.20;99.90
17421;DHT22;8828;48.800;9.540;2023-01-15T02:58:52;12.20;99.90
17421;DHT22;8828;48.800;9.540;2023-01-15T03:01:25;12.20;99.90
17421;DHT22;8828;48.800;9.540;2023-01-15T03:04:01;12.20;99.90
17421;DHT22;8828;48.800;9.540;2023-01-15T03:06:36;12.20;99.90
17421;DHT22;8828;48.800;9.540;2023-01-15T03:09:05;12.20;99.90
17421;DHT22;8828;48.800;9.540;2023-01-15T03:11:37;12.20;99.90
17421;DHT22;8828;48.800;9.540;2023-01-15T03:14:13;12.20;99.90
17421;DHT22;8828;48.800;9.540;2023-01-15T03:16:46;12.20;99.90
17421;DHT22;8828;48.800;9.540;2023-01-15T03:19:23;12.20;99.90
17421;DHT22;8828;48.800;9.540;2023-01-15T03:21:56;12.20;99.90
17421;DHT22;8828;48.800;9.540;2023-01-15T03:24:30;12.20;99.90
17421;DHT22;8828;48.800;9.540;2023-01-15T03:27:00;12.20;99.90
17421;DHT22;8828;48.800;9.540;2023-01-15T03:29:33;12.20;99.90
17421;DHT22;8828;48.800;9.540;2023-01-15T03:32:02;12.20;99.90
17421;DHT22;8828;48.800;9.540;2023-01-15T03:34:38;12.20;99.90
17421;DHT22;8828;48.800;9.540;2023-01-15T03:37:07;12.20;99.90
17421;DHT22;8828;48.800;9.540;2023-01-15T03:39:35;12.20;99.90
17421;DHT22;8828;48.800;9.540;2023-01-15T03:42:19;12.20;99.90
17421;DHT22;8828;48.800;9.540;2023-01-15T03:44:56;12.20;99.90
17421;DHT22;8828;48.800;9.540;2023-01-15T03:47:32;12.20;99.90
17421;DHT22;8828;48.800;9.540;2023-01-15T03:50:11;12.20;99.90
17421;DHT22;8828;48.800;9.540;2023-01-15T03:52:44;12.10;99.90
17421;DHT22;8828;48.800;9.540;2023-01-15T03:55:15;12.10;99.90
17421;DHT22;8828;48.800;9.540;2023-01-15T03:57:48;12.10;99.90
17421;DHT22;8828;48.800;9.540;2023-01-15T04:00:21;12.10;99.90
17421;DHT22;8828;48.800;9.540;2023-01-15T04:02:53;12.10;99.90
17421;DHT22;8828;48.800;9.540;2023-01-15T04:05:23;12.10;99.90
17421;DHT22;8828;48.800;9.540;2023-01-15T04:07:53;12.10;99.90
17421;DHT22;8828;48.800;9.540;2023-01-15T04:10:21;12.10;99.90
17421;DHT22;8828;48.800;9.540;2023-01-15T04:12:49;12.00;99.90
17421;DHT22;8828;48.800;9.540;2023-01-15T04:15:19;12.00;99.90
17421;DHT22;8828;48.800;9.540;2023-01-15T04:17:47;12.00;99.90
17421;DHT22;8828;48.800;9.540;2023-01-15T04:20:15;12.00;99.90
17421;DHT22;8828;48.800;9.540;2023-01-15T04:22:43;12.00;99.90
17421;DHT22;8828;48.800;9.540;2023-01-15T04:25:11;12.00;99.90
17421;DHT22;8828;48.800;9.540;2023-01-15T04:27:39;12.00;99.90
17421;DHT22;8828;48.800;9.540;2023-01-15T04:30:08;11.90;99.90
17421;DHT22;8828;48.800;9.540;2023-01-15T04:32:37;11.90;99.90
17421;DHT22;8828;48.800;9.540;2023-01-15T04:35:05;11.90;99.90
17421;DHT22;8828;48.800;9.540;2023-01-15T04:37:33;11.90;99.90
17421;DHT22;8828;48.800;9.540;2023-01-15T04:40:01;11.90;99.90
17421;DHT22;8828;48.800;9.540;2023-01-15T04:42:29;11.90;99.90
17421;DHT22;8828;48.800;9.540;2023-01-15T04:45:26;11.90;99.90
17421;DHT22;8828;48.800;9.540;2023-01-15T04:47:55;11.90;99.90
17421;DHT22;8828;48.800;9.540;2023-01-15T04:50:23;11.90;99.90
17421;DHT22;8828;48.800;9.540;2023-01-15T04:52:51;11.90;99.90
17421;DHT22;8828;48.800;9.540;2023-01-15T04:55:19;11.90;99.90
17421;DHT22;8828;48.800;9.540;2023-01-15T04:57:48;11.90;99.90
17421;DHT22;8828;48.800;9.540;2023-01-15T05:00:17;11.90;99.90
17421;DHT22;8828;48.800;9.540;2023-01-15T05:02:45;11.90;99.90
17421;DHT22;8828;48.800;9.540;2023-01-15T05:05:15;11.90;99.90
17421;DHT22;8828;48.800;9.540;2023-01-15T05:07:43;11.90;99.90
17421;DHT22;8828;48.800;9.540;2023-01-15T05:10:10;11.90;99.90
17421;DHT22;8828;48.800;9.540;2023-01-15T05:12:38;11.90;99.90
17421;DHT22;8828;48.800;9.540;2023-01-15T05:15:07;11.90;99.90
17421;DHT22;8828;48.800;9.540;2023-01-15T05:17:35;11.90;99.90
17421;DHT22;8828;48.800;9.540;2023-01-15T05:20:03;11.90;99.90
17421;DHT22;8828;48.800;9.540;2023-01-15T05:22:34;11.90;99.90
17421;DHT22;8828;48.800;9.540;2023-01-15T05:25:01;11.90;99.90
17421;DHT22;8828;48.800;9.540;2023-01-15T05:27:30;11.90;99.90
17421;DHT22;8828;48.800;9.540;2023-01-15T05:29:57;11.90;99.90
17421;DHT22;8828;48.800;9.540;2023-01-15T05:32:25;11.90;99.90
17421;DHT22;8828;48.800;9.540;2023-01-15T05:34:53;12.00;99.90
17421;DHT22;8828;48.800;9.540;2023-01-15T05:37:21;12.00;99.90
17421;DHT22;8828;48.800;9.540;2023-01-15T05:39:50;12.00;99.90
17421;DHT22;8828;48.800;9.540;2023-01-15T05:42:18;12.00;99.90
17421;DHT22;8828;48.800;9.540;2023-01-15T05:44:46;12.00;99.90
17421;DHT22;8828;48.800;9.540;2023-01-15T05:47:14;12.00;99.90
17421;DHT22;8828;48.800;9.540;2023-01-15T05:49:42;12.00;99.90
17421;DHT22;8828;48.800;9.540;2023-01-15T05:52:10;11.90;99.90
17421;DHT22;8828;48.800;9.540;2023-01-15T05:54:38;11.70;99.90
17421;DHT22;8828;48.800;9.540;2023-01-15T05:57:10;11.50;99.90
17421;DHT22;8828;48.800;9.540;2023-01-15T05:59:38;11.40;99.90
17421;DHT22;8828;48.800;9.540;2023-01-15T06:02:06;11.20;99.90
17421;DHT22;8828;48.800;9.540;2023-01-15T06:04:34;11.10;99.90
17421;DHT22;8828;48.800;9.540;2023-01-15T06:07:02;11.00;99.90
17421;DHT22;8828;48.800;9.540;2023-01-15T06:09:30;10.90;99.90
17421;DHT22;8828;48.800;9.540;2023-01-15T06:11:58;10.80;99.90
17421;DHT22;8828;48.800;9.540;2023-01-15T06:14:27;10.80;99.90
17421;DHT22;8828;48.800;9.540;2023-01-15T06:16:55;10.70;99.90
17421;DHT22;8828;48.800;9.540;2023-01-15T06:19:23;10.70;99.90
17421;DHT22;8828;48.800;9.540;2023-01-15T06:21:51;10.60;99.90
17421;DHT22;8828;48.800;9.540;2023-01-15T06:24:19;10.60;99.90
17421;DHT22;8828;48.800;9.540;2023-01-15T06:26:47;10.50;99.90
17421;DHT22;8828;48.800;9.540;2023-01-15T06:29:15;10.50;99.90
17421;DHT22;8828;48.800;9.540;2023-01-15T06:31:47;10.50;99.90
17421;DHT22;8828;48.800;9.540;2023-01-15T06:34:15;10.40;99.90
17421;DHT22;8828;48.800;9.540;2023-01-15T06:36:43;10.40;99.90
17421;DHT22;8828;48.800;9.540;2023-01-15T06:39:11;10.30;99.90
17421;DHT22;8828;48.800;9.540;2023-01-15T06:41:39;10.30;99.90
17421;DHT22;8828;48.800;9.540;2023-01-15T06:44:25;10.20;99.90
17421;DHT22;8828;48.800;9.540;2023-01-15T06:47:13;10.20;99.90
17421;DHT22;8828;48.800;9.540;2023-01-15T06:49:52;10.20;99.90
17421;DHT22;8828;48.800;9.540;2023-01-15T06:52:21;10.10;99.90
17421;DHT22;8828;48.800;9.540;2023-01-15T06:54:49;10.10;99.90
17421;DHT22;8828;48.800;9.540;2023-01-15T06:57:17;10.10;99.90
17421;DHT22;8828;48.800;9.540;2023-01-15T06:59:45;10.10;99.90
17421;DHT22;8828;48.800;9.540;2023-01-15T07:02:14;10.00;99.90
17421;DHT22;8828;48.800;9.540;2023-01-15T07:04:43;10.00;99.90
17421;DHT22;8828;48.800;9.540;2023-01-15T07:07:12;10.00;99.90
17421;DHT22;8828;48.800;9.540;2023-01-15T07:09:40;10.00;99.90
17421;DHT22;8828;48.800;9.540;2023-01-15T07:12:08;9.90;99.90
17421;DHT22;8828;48.800;9.540;2023-01-15T07:14:37;9.90;99.90
17421;DHT22;8828;48.800;9.540;2023-01-15T07:17:05;9.90;99.90
17421;DHT22;8828;48.800;9.540;2023-01-15T07:19:35;9.80;99.90
17421;DHT22;8828;48.800;9.540;2023-01-15T07:22:03;9.80;99.90
17421;DHT22;8828;48.800;9.540;2023-01-15T07:24:31;9.70;99.90
17421;DHT22;8828;48.800;9.540;2023-01-15T07:26:59;9.70;99.90
17421;DHT22;8828;48.800;9.540;2023-01-15T07:29:27;9.60;99.90
17421;DHT22;8828;48.800;9.540;2023-01-15T07:31:57;9.50;99.90
17421;DHT22;8828;48.800;9.540;2023-01-15T07:34:25;9.40;99.90
17421;DHT22;8828;48.800;9.540;2023-01-15T07:36:54;9.40;99.90
17421;DHT22;8828;48.800;9.540;2023-01-15T07:39:22;9.40;99.90
17421;DHT22;8828;48.800;9.540;2023-01-15T07:41:50;9.40;99.90
17421;DHT22;8828;48.800;9.540;2023-01-15T07:44:35;9.30;99.90
17421;DHT22;8828;48.800;9.540;2023-01-15T07:47:24;9.20;99.90
17421;DHT22;8828;48.800;9.540;2023-01-15T07:50:12;9.20;99.90
17421;DHT22;8828;48.800;9.540;2023-01-15T07:52:42;9.10;99.90
17421;DHT22;8828;48.800;9.540;2023-01-15T07:55:10;9.00;99.90
17421;DHT22;8828;48.800;9.540;2023-01-15T07:57:39;9.00;99.90
17421;DHT22;8828;48.800;9.540;2023-01-15T08:00:11;9.00;99.90
17421;DHT22;8828;48.800;9.540;2023-01-15T08:02:40;9.00;99.90
17421;DHT22;8828;48.800;9.540;2023-01-15T08:05:09;9.00;99.90
17421;DHT22;8828;48.800;9.540;2023-01-15T08:07:39;9.00;99.90
17421;DHT22;8828;48.800;9.540;2023-01-15T08:10:10;9.00;99.90
17421;DHT22;8828;48.800;9.540;2023-01-15T08:12:39;9.00;99.90
17421;DHT22;8828;48.800;9.540;2023-01-15T08:15:24;9.00;99.90
17421;DHT22;8828;48.800;9.540;2023-01-15T08:17:52;9.00;99.90
17421;DHT22;8828;48.800;9.540;2023-01-15T08:20:24;9.00;99.90
17421;DHT22;8828;48.800;9.540;2023-01-15T08:22:52;9.00;99.90
17421;DHT22;8828;48.800;9.540;2023-01-15T08:25:23;9.00;99.90
17421;DHT22;8828;48.800;9.540;2023-01-15T08:27:52;9.00;99.90
17421;DHT22;8828;48.800;9.540;2023-01-15T08:30:22;9.00;99.90
17421;DHT22;8828;48.800;9.540;2023-01-15T08:32:50;9.00;99.90
17421;DHT22;8828;48.800;9.540;2023-01-15T08:35:18;9.00;99.90
17421;DHT22;8828;48.800;9.540;2023-01-15T08:37:46;9.00;99.90
17421;DHT22;8828;48.800;9.540;2023-01-15T08:40:14;9.00;99.90
17421;DHT22;8828;48.800;9.540;2023-01-15T08:42:43;9.10;99.90
17421;DHT22;8828;48.800;9.540;2023-01-15T08:45:11;9.10;99.90
17421;DHT22;8828;48.800;9.540;2023-01-15T08:47:39;9.10;99.90
17421;DHT22;8828;48.800;9.540;2023-01-15T08:50:09;9.10;99.90
17421;DHT22;8828;48.800;9.540;2023-01-15T08:52:37;9.10;99.90
17421;DHT22;8828;48.800;9.540;2023-01-15T08:55:06;9.10;99.90
17421;DHT22;8828;48.800;9.540;2023-01-15T08:57:34;9.00;99.90
17421;DHT22;8828;48.800;9.540;2023-01-15T09:00:07;9.00;99.90
17421;DHT22;8828;48.800;9.540;2023-01-15T09:02:35;9.00;99.90
17421;DHT22;8828;48.800;9.540;2023-01-15T09:05:03;9.00;99.90
17421;DHT22;8828;48.800;9.540;2023-01-15T09:07:31;9.00;99.90
17421;DHT22;8828;48.800;9.540;2023-01-15T09:10:01;9.00;99.90
17421;DHT22;8828;48.800;9.540;2023-01-15T09:12:30;9.00;99.90
17421;DHT22;8828;48.800;9.540;2023-01-15T09:14:58;9.00;99.90
17421;DHT22;8828;48.800;9.540;2023-01-15T09:17:31;8.90;99.90
17421;DHT22;8828;48.800;9.540;2023-01-15T09:19:59;8.90;99.90
17421;DHT22;8828;48.800;9.540;2023-01-15T09:22:28;8.90;99.90
17421;DHT22;8828;48.800;9.540;2023-01-15T09:24:57;8.90;99.90
17421;DHT22;8828;48.800;9.540;2023-01-15T09:27:25;8.90;99.90
17421;DHT22;8828;48.800;9.540;2023-01-15T09:29:54;8.90;99.90
17421;DHT22;8828;48.800;9.540;2023-01-15T09:32:22;8.90;99.90
17421;DHT22;8828;48.800;9.540;2023-01-15T09:34:51;8.90;99.90
17421;DHT22;8828;48.800;9.540;2023-01-15T09:37:19;8.80;99.90
17421;DHT22;8828;48.800;9.540;2023-01-15T09:39:47;8.80;99.90
17421;DHT22;8828;48.800;9.540;2023-01-15T09:42:35;8.80;99.90
17421;DHT22;8828;48.800;9.540;2023-01-15T09:45:16;8.80;99.90
17421;DHT22;8828;48.800;9.540;2023-01-15T09:48:06;8.80;99.90
17421;DHT22;8828;48.800;9.540;2023-01-15T09:50:50;8.90;99.90
17421;DHT22;8828;48.800;9.540;2023-01-15T09:56:19;8.80;99.90
17421;DHT22;8828;48.800;9.540;2023-01-15T09:58:49;8.80;99.90
17421;DHT22;8828;48.800;9.540;2023-01-15T10:01:20;8.80;99.90
17421;DHT22;8828;48.800;9.540;2023-01-15T10:03:55;8.80;99.90
17421;DHT22;8828;48.800;9.540;2023-01-15T10:06:28;8.80;99.90
17421;DHT22;8828;48.800;9.540;2023-01-15T10:09:03;8.80;99.90
17421;DHT22;8828;48.800;9.540;2023-01-15T10:11:38;8.80;99.90
17421;DHT22;8828;48.800;9.540;2023-01-15T10:14:33;8.80;99.90
17421;DHT22;8828;48.800;9.540;2023-01-15T10:17:18;8.90;99.90
17421;DHT22;8828;48.800;9.540;2023-01-15T10:19:47;8.80;99.90
17421;DHT22;8828;48.800;9.540;2023-01-15T10:22:25;8.90;99.90
17421;DHT22;8828;48.800;9.540;2023-01-15T10:24:55;8.80;99.90
17421;DHT22;8828;48.800;9.540;2023-01-15T10:27:26;8.90;99.90
17421;DHT22;8828;48.800;9.540;2023-01-15T10:30:03;8.90;99.90
17421;DHT22;8828;48.800;9.540;2023-01-15T10:32:40;8.90;99.90
17421;DHT22;8828;48.800;9.540;2023-01-15T10:35:35;8.90;99.90
17421;DHT22;8828;48.800;9.540;2023-01-15T10:38:15;8.90;99.90
17421;DHT22;8828;48.800;9.540;2023-01-15T10:43:48;8.90;99.90
17421;DHT22;8828;48.800;9.540;2023-01-15T10:46:18;8.80;99.90
17421;DHT22;8828;48.800;9.540;2023-01-15T10:48:51;8.70;99.90
17421;DHT22;8828;48.800;9.540;2023-01-15T10:51:22;8.70;99.90
17421;DHT22;8828;48.800;9.540;2023-01-15T10:53:54;8.60;99.90
17421;DHT22;8828;48.800;9.540;2023-01-15T10:56:31;8.50;99.90
17421;DHT22;8828;48.800;9.540;2023-01-15T10:59:08;8.50;99.90
17421;DHT22;8828;48.800;9.540;2023-01-15T11:01:38;8.40;99.90
17421;DHT22;8828;48.800;9.540;2023-01-15T11:04:08;8.40;99.90
17421;DHT22;8828;48.800;9.540;2023-01-15T11:06:38;8.40;99.90
17421;DHT22;8828;48.800;9.540;2023-01-15T11:09:18;8.30;99.90
17421;DHT22;8828;48.800;9.540;2023-01-15T11:11:48;8.30;99.90
17421;DHT22;8828;48.800;9.540;2023-01-15T11:14:35;8.20;99.90
17421;DHT22;8828;48.800;9.540;2023-01-15T11:17:22;8.10;99.90
17421;DHT22;8828;48.800;9.540;2023-01-15T11:20:16;7.90;99.90
17421;DHT22;8828;48.800;9.540;2023-01-15T11:22:48;7.90;99.90
17421;DHT22;8828;48.800;9.540;2023-01-15T11:25:27;7.80;99.90
17421;DHT22;8828;48.800;9.540;2023-01-15T11:27:56;7.70;99.90
17421;DHT22;8828;48.800;9.540;2023-01-15T11:30:27;7.70;99.90
17421;DHT22;8828;48.800;9.540;2023-01-15T11:32:57;7.70;99.90
17421;DHT22;8828;48.800;9.540;2023-01-15T11:35:26;7.70;99.90
17421;DHT22;8828;48.800;9.540;2023-01-15T11:38:01;7.70;99.90
17421;DHT22;8828;48.800;9.540;2023-01-15T11:40:31;7.70;99.90
17421;DHT22;8828;48.800;9.540;2023-01-15T11:42:59;7.70;99.90
17421;DHT22;8828;48.800;9.540;2023-01-15T11:45:48;7.70;99.90
17421;DHT22;8828;48.800;9.540;2023-01-15T11:48:34;7.70;99.90
17421;DHT22;8828;48.800;9.540;2023-01-15T11:51:27;7.70;99.90
17421;DHT22;8828;48.800;9.540;2023-01-15T11:54:00;7.70;99.90
17421;DHT22;8828;48.800;9.540;2023-01-15T11:56:32;7.70;99.90
17421;DHT22;8828;48.800;9.540;2023-01-15T11:59:03;7.50;99.90
17421;DHT22;8828;48.800;9.540;2023-01-15T12:01:35;7.50;99.90
17421;DHT22;8828;48.800;9.540;2023-01-15T12:04:06;7.50;99.90
17421;DHT22;8828;48.800;9.540;2023-01-15T12:06:47;7.40;99.90
17421;DHT22;8828;48.800;9.540;2023-01-15T12:09:23;7.50;99.90
17421;DHT22;8828;48.800;9.540;2023-01-15T12:12:06;7.40;99.90
17421;DHT22;8828;48.800;9.540;2023-01-15T12:15:05;7.40;99.90
17421;DHT22;8828;48.800;9.540;2023-01-15T12:20:34;7.40;99.90
17421;DHT22;8828;48.800;9.540;2023-01-15T12:23:27;7.40;99.90
17421;DHT22;8828;48.800;9.540;2023-01-15T12:26:05;7.30;99.90
17421;DHT22;8828;48.800;9.540;2023-01-15T12:28:51;7.40;99.90
17421;DHT22;8828;48.800;9.540;2023-01-15T12:31:23;7.40;99.90
17421;DHT22;8828;48.800;9.540;2023-01-15T12:33:55;7.40;99.90
17421;DHT22;8828;48.800;9.540;2023-01-15T12:36:29;7.40;99.90
17421;DHT22;8828;48.800;9.540;2023-01-15T12:38:59;7.40;99.90
17421;DHT22;8828;48.800;9.540;2023-01-15T12:41:31;7.40;99.90
17421;DHT22;8828;48.800;9.540;2023-01-15T12:44:18;7.40;99.90
17421;DHT22;8828;48.800;9.540;2023-01-15T12:47:08;7.50;99.90
17421;DHT22;8828;48.800;9.540;2023-01-15T12:49:42;7.50;99.90
17421;DHT22;8828;48.800;9.540;2023-01-15T12:52:16;7.50;99.90
17421;DHT22;8828;48.800;9.540;2023-01-15T12:54:50;7.50;99.90
17421;DHT22;8828;48.800;9.540;2023-01-15T12:57:29;7.50;99.90
17421;DHT22;8828;48.800;9.540;2023-01-15T13:00:03;7.50;99.90
17421;DHT22;8828;48.800;9.540;2023-01-15T13:02:37;7.50;99.90
17421;DHT22;8828;48.800;9.540;2023-01-15T13:05:15;7.60;99.90
17421;DHT22;8828;48.800;9.540;2023-01-15T13:07:48;7.60;99.90
17421;DHT22;8828;48.800;9.540;2023-01-15T13:10:20;7.60;99.90
17421;DHT22;8828;48.800;9.540;2023-01-15T13:12:49;7.60;99.90
17421;DHT22;8828;48.800;9.540;2023-01-15T13:15:21;7.60;99.90
17421;DHT22;8828;48.800;9.540;2023-01-15T13:17:59;7.60;99.90
17421;DHT22;8828;48.800;9.540;2023-01-15T13:20:38;7.60;99.90
17421;DHT22;8828;48.800;9.540;2023-01-15T13:23:22;7.50;99.90
17421;DHT22;8828;48.800;9.540;2023-01-15T13:26:06;7.50;99.90
17421;DHT22;8828;48.800;9.540;2023-01-15T13:28:51;7.50;99.90
17421;DHT22;8828;48.800;9.540;2023-01-15T13:34:29;7.50;99.90
17421;DHT22;8828;48.800;9.540;2023-01-15T13:37:04;7.50;99.90
17421;DHT22;8828;48.800;9.540;2023-01-15T13:39:39;7.50;99.90
17421;DHT22;8828;48.800;9.540;2023-01-15T13:42:15;7.50;99.90
17421;DHT22;8828;48.800;9.540;2023-01-15T13:45:06;7.50;99.90
17421;DHT22;8828;48.800;9.540;2023-01-15T13:47:37;7.50;99.90
17421;DHT22;8828;48.800;9.540;2023-01-15T13:50:14;7.50;99.90
17421;DHT22;8828;48.800;9.540;2023-01-15T13:52:43;7.50;99.90
17421;DHT22;8828;48.800;9.540;2023-01-15T13:55:32;7.50;99.90
17421;DHT22;8828;48.800;9.540;2023-01-15T13:58:00;7.60;99.90
17421;DHT22;8828;48.800;9.540;2023-01-15T14:00:31;7.50;99.90
17421;DHT22;8828;48.800;9.540;2023-01-15T14:03:02;7.50;99.90
17421;DHT22;8828;48.800;9.540;2023-01-15T14:05:33;7.60;99.90
17421;DHT22;8828;48.800;9.540;2023-01-15T14:08:14;7.60;99.90
17421;DHT22;8828;48.800;9.540;2023-01-15T14:10:42;7.60;99.90
17421;DHT22;8828;48.800;9.540;2023-01-15T14:16:35;7.60;99.90
17421;DHT22;8828;48.800;9.540;2023-01-15T14:19:25;7.60;99.90
17421;DHT22;8828;48.800;9.540;2023-01-15T14:22:06;7.70;99.90
17421;DHT22;8828;48.800;9.540;2023-01-15T14:24:53;7.70;99.90
17421;DHT22;8828;48.800;9.540;2023-01-15T14:27:40;7.70;99.90
17421;DHT22;8828;48.800;9.540;2023-01-15T14:30:31;7.80;99.90
17421;DHT22;8828;48.800;9.540;2023-01-15T14:33:10;7.90;99.90
17421;DHT22;8828;48.800;9.540;2023-01-15T14:35:45;7.90;99.90
17421;DHT22;8828;48.800;9.540;2023-01-15T14:38:16;7.90;99.90
17421;DHT22;8828;48.800;9.540;2023-01-15T14:40:52;8.00;99.90
17421;DHT22;8828;48.800;9.540;2023-01-15T14:43:22;8.00;99.90
17421;DHT22;8828;48.800;9.540;2023-01-15T14:45:52;7.90;99.90
17421;DHT22;8828;48.800;9.540;2023-01-15T14:48:35;8.00;99.90
17421;DHT22;8828;48.800;9.540;2023-01-15T14:51:11;7.90;99.90
17421;DHT22;8828;48.800;9.540;2023-01-15T14:53:42;8.00;99.90
17421;DHT22;8828;48.800;9.540;2023-01-15T14:56:17;8.00;99.90
17421;DHT22;8828;48.800;9.540;2023-01-15T14:58:53;7.90;99.90
17421;DHT22;8828;48.800;9.540;2023-01-15T15:01:40;7.90;99.90
17421;DHT22;8828;48.800;9.540;2023-01-15T15:04:17;7.80;99.90
17421;DHT22;8828;48.800;9.540;2023-01-15T15:06:51;7.80;99.90
17421;DHT22;8828;48.800;9.540;2023-01-15T15:09:34;7.90;99.90
17421;DHT22;8828;48.800;9.540;2023-01-15T15:12:24;7.80;99.90
17421;DHT22;8828;48.800;9.540;2023-01-15T15:15:01;7.80;99.90
17421;DHT22;8828;48.800;9.540;2023-01-15T15:17:36;7.80;99.90
17421;DHT22;8828;48.800;9.540;2023-01-15T15:20:22;7.70;99.90
17421;DHT22;8828;48.800;9.540;2023-01-15T15:22:55;7.70;99.90
17421;DHT22;8828;48.800;9.540;2023-01-15T15:25:26;7.60;99.90
17421;DHT22;8828;48.800;9.540;2023-01-15T15:28:03;7.60;99.90
17421;DHT22;8828;48.800;9.540;2023-01-15T15:30:34;7.50;99.90
17421;DHT22;8828;48.800;9.540;2023-01-15T15:33:03;7.50;99.90
17421;DHT22;8828;48.800;9.540;2023-01-15T15:35:32;7.50;99.90
17421;DHT22;8828;48.800;9.540;2023-01-15T15:38:04;7.40;99.90
17421;DHT22;8828;48.800;9.540;2023-01-15T15:40:34;7.40;99.90
17421;DHT22;8828;48.800;9.540;2023-01-15T15:43:09;7.40;99.90
17421;DHT22;8828;48.800;9.540;2023-01-15T15:45:56;7.40;99.90
17421;DHT22;8828;48.800;9.540;2023-01-15T15:48:47;7.30;99.90
17421;DHT22;8828;48.800;9.540;2023-01-15T15:51:29;7.30;99.90
17421;DHT22;8828;48.800;9.540;2023-01-15T15:54:11;7.30;99.90
17421;DHT22;8828;48.800;9.540;2023-01-15T15:56:42;7.20;99.90
17421;DHT22;8828;48.800;9.540;2023-01-15T15:59:22;7.20;99.90
17421;DHT22;8828;48.800;9.540;2023-01-15T16:01:52;7.20;99.90
17421;DHT22;8828;48.800;9.540;2023-01-15T16:04:21;7.20;99.90
17421;DHT22;8828;48.800;9.540;2023-01-15T16:06:50;7.10;99.90
17421;DHT22;8828;48.800;9.540;2023-01-15T16:09:23;7.00;99.90
17421;DHT22;8828;48.800;9.540;2023-01-15T16:11:52;7.00;99.90
17421;DHT22;8828;48.800;9.540;2023-01-15T16:14:21;7.00;99.90
17421;DHT22;8828;48.800;9.540;2023-01-15T16:16:51;6.90;99.90
17421;DHT22;8828;48.800;9.540;2023-01-15T16:19:21;6.90;99.90
17421;DHT22;8828;48.800;9.540;2023-01-15T16:21:51;6.90;99.90
17421;DHT22;8828;48.800;9.540;2023-01-15T16:24:26;6.90;99.90
17421;DHT22;8828;48.800;9.540;2023-01-15T16:26:58;6.80;99.90
17421;DHT22;8828;48.800;9.540;2023-01-15T16:29:29;6.80;99.90
17421;DHT22;8828;48.800;9.540;2023-01-15T16:31:58;6.70;99.90
17421;DHT22;8828;48.800;9.540;2023-01-15T16:34:28;6.70;99.90
17421;DHT22;8828;48.800;9.540;2023-01-15T16:36:57;6.70;99.90
17421;DHT22;8828;48.800;9.540;2023-01-15T16:39:31;6.70;99.90
17421;DHT22;8828;48.800;9.540;2023-01-15T16:42:01;6.70;99.90
17421;DHT22;8828;48.800;9.540;2023-01-15T16:44:38;6.60;99.90